sensor_id;sensor_type;location;lat;lon;timestamp;P1;durP1;ratioP1;P2;durP2;ratioP2
57231;SDS011;43488;46.934;8.276;2023-02-26T00:01:43;802.10;;;309.00;;
57231;SDS011;43488;46.934;8.276;2023-02-26T00:04:11;778.50;;;295.58;;
57231;SDS011;43488;46.934;8.276;2023-02-26T00:06:39;806.38;;;305.98;;
57231;SDS011;43488;46.934;8.276;2023-02-26T00:09:21;805.15;;;304.48;;
57231;SDS011;43488;46.934;8.276;2023-02-26T00:11:48;778.22;;;280.92;;
57231;SDS011;43488;46.934;8.276;2023-02-26T00:14:16;767.67;;;298.90;;
57231;SDS011;43488;46.934;8.276;2023-02-26T00:16:46;794.13;;;297.17;;
57231;SDS011;43488;46.934;8.276;2023-02-26T00:19:31;762.05;;;261.77;;
57231;SDS011;43488;46.934;8.276;2023-02-26T00:21:59;776.88;;;295.90;;
57231;SDS011;43488;46.934;8.276;2023-02-26T00:24:26;790.70;;;309.40;;
57231;SDS011;43488;46.934;8.276;2023-02-26T00:26:54;786.80;;;297.27;;
57231;SDS011;43488;46.934;8.276;2023-02-26T00:29:21;796.95;;;300.85;;
57231;SDS011;43488;46.934;8.276;2023-02-26T00:31:49;786.90;;;282.77;;
57231;SDS011;43488;46.934;8.276;2023-02-26T00:34:17;777.85;;;270.23;;
57231;SDS011;43488;46.934;8.276;2023-02-26T00:42:03;717.95;;;240.68;;
57231;SDS011;43488;46.934;8.276;2023-02-26T00:44:31;695.03;;;224.25;;
57231;SDS011;43488;46.934;8.276;2023-02-26T00:50:12;683.50;;;208.20;;
57231;SDS011;43488;46.934;8.276;2023-02-26T00:53:06;760.75;;;259.15;;
57231;SDS011;43488;46.934;8.276;2023-02-26T00:55:44;799.17;;;298.55;;
57231;SDS011;43488;46.934;8.276;2023-02-26T00:58:11;794.03;;;293.20;;
57231;SDS011;43488;46.934;8.276;2023-02-26T01:00:39;756.92;;;248.95;;
57231;SDS011;43488;46.934;8.276;2023-02-26T01:03:07;790.03;;;285.85;;
57231;SDS011;43488;46.934;8.276;2023-02-26T01:05:37;783.22;;;279.85;;
57231;SDS011;43488;46.934;8.276;2023-02-26T01:08:07;768.55;;;264.55;;
57231;SDS011;43488;46.934;8.276;2023-02-26T01:10:54;789.63;;;286.58;;
57231;SDS011;43488;46.934;8.276;2023-02-26T01:13:22;780.35;;;278.92;;
57231;SDS011;43488;46.934;8.276;2023-02-26T01:15:52;783.15;;;278.48;;
57231;SDS011;43488;46.934;8.276;2023-02-26T01:18:40;771.15;;;266.13;;
57231;SDS011;43488;46.934;8.276;2023-02-26T01:21:16;754.70;;;250.80;;
57231;SDS011;43488;46.934;8.276;2023-02-26T01:23:52;780.85;;;271.38;;
57231;SDS011;43488;46.934;8.276;2023-02-26T01:26:23;789.88;;;281.05;;
57231;SDS011;43488;46.934;8.276;2023-02-26T01:28:55;779.53;;;294.02;;
57231;SDS011;43488;46.934;8.276;2023-02-26T01:31:40;767.90;;;285.85;;
57231;SDS011;43488;46.934;8.276;2023-02-26T01:34:15;720.30;;;231.25;;
57231;SDS011;43488;46.934;8.276;2023-02-26T01:37:21;623.13;;;243.07;;
57231;SDS011;43488;46.934;8.276;2023-02-26T01:40:22;475.60;;;224.40;;
57231;SDS011;43488;46.934;8.276;2023-02-26T01:44:19;663.42;;;233.55;;
57231;SDS011;43488;46.934;8.276;2023-02-26T01:47:17;410.42;;;261.33;;
57231;SDS011;43488;46.934;8.276;2023-02-26T01:50:25;459.88;;;214.88;;
57231;SDS011;43488;46.934;8.276;2023-02-26T01:55:59;444.85;;;200.95;;
57231;SDS011;43488;46.934;8.276;2023-02-26T01:58:37;702.85;;;230.07;;
57231;SDS011;43488;46.934;8.276;2023-02-26T02:01:07;710.33;;;226.15;;
57231;SDS011;43488;46.934;8.276;2023-02-26T02:03:36;738.33;;;234.75;;
57231;SDS011;43488;46.934;8.276;2023-02-26T02:06:19;698.28;;;219.02;;
57231;SDS011;43488;46.934;8.276;2023-02-26T02:08:50;724.75;;;248.02;;
57231;SDS011;43488;46.934;8.276;2023-02-26T02:11:18;734.88;;;244.98;;
57231;SDS011;43488;46.934;8.276;2023-02-26T02:13:59;713.15;;;238.80;;
57231;SDS011;43488;46.934;8.276;2023-02-26T02:19:53;715.35;;;238.57;;
57231;SDS011;43488;46.934;8.276;2023-02-26T02:23:21;706.80;;;240.70;;
57231;SDS011;43488;46.934;8.276;2023-02-26T02:32:43;698.47;;;219.25;;
57231;SDS011;43488;46.934;8.276;2023-02-26T02:35:21;550.80;;;215.48;;
57231;SDS011;43488;46.934;8.276;2023-02-26T02:38:10;707.47;;;239.33;;
57231;SDS011;43488;46.934;8.276;2023-02-26T02:40:49;684.33;;;243.60;;
57231;SDS011;43488;46.934;8.276;2023-02-26T02:43:24;490.42;;;265.08;;
57231;SDS011;43488;46.934;8.276;2023-02-26T02:46:03;405.65;;;267.42;;
57231;SDS011;43488;46.934;8.276;2023-02-26T02:51:22;555.85;;;218.00;;
57231;SDS011;43488;46.934;8.276;2023-02-26T02:53:56;760.13;;;280.33;;
57231;SDS011;43488;46.934;8.276;2023-02-26T02:59:34;785.30;;;304.85;;
57231;SDS011;43488;46.934;8.276;2023-02-26T03:02:10;780.95;;;285.60;;
57231;SDS011;43488;46.934;8.276;2023-02-26T03:05:06;779.03;;;288.92;;
57231;SDS011;43488;46.934;8.276;2023-02-26T03:07:35;794.90;;;303.65;;
57231;SDS011;43488;46.934;8.276;2023-02-26T03:10:10;789.97;;;296.75;;
57231;SDS011;43488;46.934;8.276;2023-02-26T03:12:40;799.83;;;316.13;;
57231;SDS011;43488;46.934;8.276;2023-02-26T03:15:07;785.45;;;290.23;;
57231;SDS011;43488;46.934;8.276;2023-02-26T03:17:38;750.22;;;261.17;;
57231;SDS011;43488;46.934;8.276;2023-02-26T03:20:28;442.30;;;203.02;;
57231;SDS011;43488;46.934;8.276;2023-02-26T03:31:55;417.23;;;199.63;;
57231;SDS011;43488;46.934;8.276;2023-02-26T03:37:06;446.50;;;206.85;;
57231;SDS011;43488;46.934;8.276;2023-02-26T03:39:40;366.02;;;266.60;;
57231;SDS011;43488;46.934;8.276;2023-02-26T03:42:21;405.52;;;202.93;;
57231;SDS011;43488;46.934;8.276;2023-02-26T03:45:13;689.00;;;247.02;;
57231;SDS011;43488;46.934;8.276;2023-02-26T03:47:47;518.45;;;233.40;;
57231;SDS011;43488;46.934;8.276;2023-02-26T03:50:25;417.33;;;199.65;;
57231;SDS011;43488;46.934;8.276;2023-02-26T03:53:10;441.00;;;214.40;;
57231;SDS011;43488;46.934;8.276;2023-02-26T03:55:46;384.63;;;265.08;;
57231;SDS011;43488;46.934;8.276;2023-02-26T03:58:29;357.90;;;269.05;;
57231;SDS011;43488;46.934;8.276;2023-02-26T04:01:00;337.88;;;255.50;;
57231;SDS011;43488;46.934;8.276;2023-02-26T04:06:10;411.48;;;210.55;;
57231;SDS011;43488;46.934;8.276;2023-02-26T04:08:39;416.48;;;212.65;;
57231;SDS011;43488;46.934;8.276;2023-02-26T04:11:09;380.48;;;262.67;;
57231;SDS011;43488;46.934;8.276;2023-02-26T04:13:42;380.35;;;270.25;;
57231;SDS011;43488;46.934;8.276;2023-02-26T04:16:11;360.58;;;262.33;;
57231;SDS011;43488;46.934;8.276;2023-02-26T04:18:39;376.85;;;268.20;;
57231;SDS011;43488;46.934;8.276;2023-02-26T04:21:15;383.27;;;259.00;;
57231;SDS011;43488;46.934;8.276;2023-02-26T04:23:47;374.58;;;273.15;;
57231;SDS011;43488;46.934;8.276;2023-02-26T04:26:14;338.60;;;256.48;;
57231;SDS011;43488;46.934;8.276;2023-02-26T04:28:42;419.00;;;205.02;;
57231;SDS011;43488;46.934;8.276;2023-02-26T04:31:09;351.83;;;264.95;;
57231;SDS011;43488;46.934;8.276;2023-02-26T04:33:38;393.27;;;193.38;;
57231;SDS011;43488;46.934;8.276;2023-02-26T04:36:06;407.25;;;203.80;;
57231;SDS011;43488;46.934;8.276;2023-02-26T04:38:34;411.98;;;206.00;;
57231;SDS011;43488;46.934;8.276;2023-02-26T04:41:01;330.10;;;255.25;;
57231;SDS011;43488;46.934;8.276;2023-02-26T04:43:28;394.85;;;193.82;;
57231;SDS011;43488;46.934;8.276;2023-02-26T04:45:56;363.73;;;254.52;;
57231;SDS011;43488;46.934;8.276;2023-02-26T04:48:24;431.30;;;210.88;;
57231;SDS011;43488;46.934;8.276;2023-02-26T04:50:51;445.42;;;148.65;;
57231;SDS011;43488;46.934;8.276;2023-02-26T04:53:19;337.70;;;248.80;;
57231;SDS011;43488;46.934;8.276;2023-02-26T04:55:47;426.55;;;214.55;;
57231;SDS011;43488;46.934;8.276;2023-02-26T04:58:15;385.00;;;289.52;;
57231;SDS011;43488;46.934;8.276;2023-02-26T05:00:49;363.25;;;270.88;;
57231;SDS011;43488;46.934;8.276;2023-02-26T05:03:19;417.52;;;303.70;;
57231;SDS011;43488;46.934;8.276;2023-02-26T05:05:47;339.85;;;264.75;;
57231;SDS011;43488;46.934;8.276;2023-02-26T05:08:14;403.55;;;207.77;;
57231;SDS011;43488;46.934;8.276;2023-02-26T05:10:42;363.23;;;286.63;;
57231;SDS011;43488;46.934;8.276;2023-02-26T05:13:10;408.00;;;209.68;;
57231;SDS011;43488;46.934;8.276;2023-02-26T05:15:38;419.08;;;215.77;;
57231;SDS011;43488;46.934;8.276;2023-02-26T05:18:05;412.45;;;209.55;;
57231;SDS011;43488;46.934;8.276;2023-02-26T05:20:32;375.58;;;290.70;;
57231;SDS011;43488;46.934;8.276;2023-02-26T05:22:59;410.67;;;305.67;;
57231;SDS011;43488;46.934;8.276;2023-02-26T05:25:27;417.38;;;303.42;;
57231;SDS011;43488;46.934;8.276;2023-02-26T05:27:54;425.13;;;209.68;;
57231;SDS011;43488;46.934;8.276;2023-02-26T05:30:22;438.48;;;221.45;;
57231;SDS011;43488;46.934;8.276;2023-02-26T05:32:50;396.23;;;279.20;;
57231;SDS011;43488;46.934;8.276;2023-02-26T05:35:17;410.30;;;288.92;;
57231;SDS011;43488;46.934;8.276;2023-02-26T05:37:47;431.13;;;214.43;;
57231;SDS011;43488;46.934;8.276;2023-02-26T05:40:14;429.30;;;307.13;;
57231;SDS011;43488;46.934;8.276;2023-02-26T05:42:42;438.17;;;212.73;;
57231;SDS011;43488;46.934;8.276;2023-02-26T05:45:09;440.23;;;214.35;;
57231;SDS011;43488;46.934;8.276;2023-02-26T05:47:36;444.75;;;224.73;;
57231;SDS011;43488;46.934;8.276;2023-02-26T05:50:05;441.98;;;211.55;;
57231;SDS011;43488;46.934;8.276;2023-02-26T05:52:32;430.08;;;213.95;;
57231;SDS011;43488;46.934;8.276;2023-02-26T05:55:00;404.20;;;292.10;;
57231;SDS011;43488;46.934;8.276;2023-02-26T05:57:28;405.50;;;290.83;;
57231;SDS011;43488;46.934;8.276;2023-02-26T05:59:55;433.83;;;212.88;;
57231;SDS011;43488;46.934;8.276;2023-02-26T06:02:22;383.65;;;284.20;;
57231;SDS011;43488;46.934;8.276;2023-02-26T06:04:50;378.85;;;287.00;;
57231;SDS011;43488;46.934;8.276;2023-02-26T06:07:18;356.02;;;266.25;;
57231;SDS011;43488;46.934;8.276;2023-02-26T06:09:45;387.02;;;287.17;;
57231;SDS011;43488;46.934;8.276;2023-02-26T06:12:13;389.35;;;279.95;;
57231;SDS011;43488;46.934;8.276;2023-02-26T06:14:42;359.60;;;272.38;;
57231;SDS011;43488;46.934;8.276;2023-02-26T06:17:09;430.10;;;229.77;;
57231;SDS011;43488;46.934;8.276;2023-02-26T06:19:36;429.83;;;215.15;;
57231;SDS011;43488;46.934;8.276;2023-02-26T06:22:04;423.00;;;210.50;;
57231;SDS011;43488;46.934;8.276;2023-02-26T06:24:31;429.05;;;204.88;;
57231;SDS011;43488;46.934;8.276;2023-02-26T06:26:58;430.52;;;217.15;;
57231;SDS011;43488;46.934;8.276;2023-02-26T06:29:25;440.00;;;228.93;;
57231;SDS011;43488;46.934;8.276;2023-02-26T06:31:53;441.58;;;221.82;;
57231;SDS011;43488;46.934;8.276;2023-02-26T06:34:20;431.38;;;220.52;;
57231;SDS011;43488;46.934;8.276;2023-02-26T06:36:49;411.38;;;201.43;;
57231;SDS011;43488;46.934;8.276;2023-02-26T06:39:16;421.38;;;213.05;;
57231;SDS011;43488;46.934;8.276;2023-02-26T06:41:43;413.83;;;209.93;;
57231;SDS011;43488;46.934;8.276;2023-02-26T06:44:10;413.30;;;212.38;;
57231;SDS011;43488;46.934;8.276;2023-02-26T06:46:37;542.80;;;213.82;;
57231;SDS011;43488;46.934;8.276;2023-02-26T06:49:05;741.92;;;260.27;;
57231;SDS011;43488;46.934;8.276;2023-02-26T06:51:32;384.45;;;204.55;;
57231;SDS011;43488;46.934;8.276;2023-02-26T06:54:00;551.22;;;255.02;;
57231;SDS011;43488;46.934;8.276;2023-02-26T06:56:27;381.80;;;233.10;;
57231;SDS011;43488;46.934;8.276;2023-02-26T06:58:54;299.75;;;244.38;;
57231;SDS011;43488;46.934;8.276;2023-02-26T07:01:22;375.60;;;198.80;;
57231;SDS011;43488;46.934;8.276;2023-02-26T07:03:50;386.30;;;206.45;;
57231;SDS011;43488;46.934;8.276;2023-02-26T07:06:17;333.08;;;267.55;;
57231;SDS011;43488;46.934;8.276;2023-02-26T07:08:45;387.90;;;303.83;;
57231;SDS011;43488;46.934;8.276;2023-02-26T07:11:12;343.73;;;275.52;;
57231;SDS011;43488;46.934;8.276;2023-02-26T07:13:41;420.17;;;235.23;;
57231;SDS011;43488;46.934;8.276;2023-02-26T07:16:10;373.98;;;286.77;;
57231;SDS011;43488;46.934;8.276;2023-02-26T07:18:39;436.85;;;227.85;;
57231;SDS011;43488;46.934;8.276;2023-02-26T07:21:07;426.95;;;233.48;;
57231;SDS011;43488;46.934;8.276;2023-02-26T07:23:35;404.45;;;215.80;;
57231;SDS011;43488;46.934;8.276;2023-02-26T07:26:02;413.33;;;210.65;;
57231;SDS011;43488;46.934;8.276;2023-02-26T07:28:30;433.15;;;225.27;;
57231;SDS011;43488;46.934;8.276;2023-02-26T07:30:58;414.30;;;305.48;;
57231;SDS011;43488;46.934;8.276;2023-02-26T07:33:25;432.48;;;236.88;;
57231;SDS011;43488;46.934;8.276;2023-02-26T07:35:54;429.15;;;235.68;;
57231;SDS011;43488;46.934;8.276;2023-02-26T07:38:22;399.65;;;301.45;;
57231;SDS011;43488;46.934;8.276;2023-02-26T07:40:49;402.17;;;306.67;;
57231;SDS011;43488;46.934;8.276;2023-02-26T07:43:20;421.02;;;215.45;;
57231;SDS011;43488;46.934;8.276;2023-02-26T07:45:49;422.58;;;214.15;;
57231;SDS011;43488;46.934;8.276;2023-02-26T07:48:17;382.70;;;288.75;;
57231;SDS011;43488;46.934;8.276;2023-02-26T07:50:44;350.30;;;293.65;;
57231;SDS011;43488;46.934;8.276;2023-02-26T07:53:13;409.52;;;223.95;;
57231;SDS011;43488;46.934;8.276;2023-02-26T07:55:41;397.98;;;212.35;;
57231;SDS011;43488;46.934;8.276;2023-02-26T07:58:08;438.08;;;248.38;;
57231;SDS011;43488;46.934;8.276;2023-02-26T08:00:37;313.30;;;271.23;;
57231;SDS011;43488;46.934;8.276;2023-02-26T08:03:04;400.65;;;202.82;;
57231;SDS011;43488;46.934;8.276;2023-02-26T08:05:32;408.88;;;226.38;;
57231;SDS011;43488;46.934;8.276;2023-02-26T08:07:59;406.27;;;226.68;;
57231;SDS011;43488;46.934;8.276;2023-02-26T08:10:28;364.95;;;297.40;;
57231;SDS011;43488;46.934;8.276;2023-02-26T08:12:56;342.85;;;288.25;;
57231;SDS011;43488;46.934;8.276;2023-02-26T08:15:24;370.10;;;281.80;;
57231;SDS011;43488;46.934;8.276;2023-02-26T08:17:51;360.05;;;283.33;;
57231;SDS011;43488;46.934;8.276;2023-02-26T08:20:19;368.48;;;286.25;;
57231;SDS011;43488;46.934;8.276;2023-02-26T08:22:48;361.63;;;297.33;;
57231;SDS011;43488;46.934;8.276;2023-02-26T08:25:16;356.98;;;283.67;;
57231;SDS011;43488;46.934;8.276;2023-02-26T08:27:45;414.52;;;228.35;;
57231;SDS011;43488;46.934;8.276;2023-02-26T08:30:12;360.13;;;289.35;;
57231;SDS011;43488;46.934;8.276;2023-02-26T08:32:40;422.70;;;217.93;;
57231;SDS011;43488;46.934;8.276;2023-02-26T08:35:08;432.33;;;227.77;;
57231;SDS011;43488;46.934;8.276;2023-02-26T08:37:37;414.83;;;223.07;;
57231;SDS011;43488;46.934;8.276;2023-02-26T08:40:06;404.13;;;215.93;;
57231;SDS011;43488;46.934;8.276;2023-02-26T08:42:34;423.75;;;232.98;;
57231;SDS011;43488;46.934;8.276;2023-02-26T08:45:02;379.58;;;288.73;;
57231;SDS011;43488;46.934;8.276;2023-02-26T08:47:30;367.27;;;290.08;;
57231;SDS011;43488;46.934;8.276;2023-02-26T08:49:59;351.92;;;283.13;;
57231;SDS011;43488;46.934;8.276;2023-02-26T08:52:26;418.33;;;217.07;;
57231;SDS011;43488;46.934;8.276;2023-02-26T08:54:54;403.52;;;217.52;;
57231;SDS011;43488;46.934;8.276;2023-02-26T08:57:22;420.80;;;217.75;;
57231;SDS011;43488;46.934;8.276;2023-02-26T08:59:50;410.92;;;213.85;;
57231;SDS011;43488;46.934;8.276;2023-02-26T09:02:17;388.17;;;288.10;;
57231;SDS011;43488;46.934;8.276;2023-02-26T09:04:45;428.60;;;225.13;;
57231;SDS011;43488;46.934;8.276;2023-02-26T09:07:12;414.85;;;208.75;;
57231;SDS011;43488;46.934;8.276;2023-02-26T09:09:41;423.13;;;217.48;;
57231;SDS011;43488;46.934;8.276;2023-02-26T09:12:11;375.10;;;287.75;;
57231;SDS011;43488;46.934;8.276;2023-02-26T09:14:39;372.48;;;281.80;;
57231;SDS011;43488;46.934;8.276;2023-02-26T09:17:06;395.20;;;301.65;;
57231;SDS011;43488;46.934;8.276;2023-02-26T09:19:33;401.60;;;312.08;;
57231;SDS011;43488;46.934;8.276;2023-02-26T09:22:01;382.35;;;302.38;;
57231;SDS011;43488;46.934;8.276;2023-02-26T09:24:28;422.25;;;213.20;;
57231;SDS011;43488;46.934;8.276;2023-02-26T09:26:55;378.27;;;292.50;;
57231;SDS011;43488;46.934;8.276;2023-02-26T09:29:23;421.08;;;212.77;;
57231;SDS011;43488;46.934;8.276;2023-02-26T09:31:50;374.45;;;290.90;;
57231;SDS011;43488;46.934;8.276;2023-02-26T09:34:17;376.13;;;294.20;;
57231;SDS011;43488;46.934;8.276;2023-02-26T09:36:47;428.08;;;226.00;;
57231;SDS011;43488;46.934;8.276;2023-02-26T09:39:14;419.75;;;224.85;;
57231;SDS011;43488;46.934;8.276;2023-02-26T09:41:43;387.90;;;300.00;;
57231;SDS011;43488;46.934;8.276;2023-02-26T09:44:19;424.75;;;216.15;;
57231;SDS011;43488;46.934;8.276;2023-02-26T09:49:36;423.90;;;216.25;;
57231;SDS011;43488;46.934;8.276;2023-02-26T09:52:44;405.17;;;306.50;;
57231;SDS011;43488;46.934;8.276;2023-02-26T09:55:38;408.13;;;207.52;;
57231;SDS011;43488;46.934;8.276;2023-02-26T09:58:14;423.95;;;211.15;;
57231;SDS011;43488;46.934;8.276;2023-02-26T10:03:58;426.42;;;217.35;;
57231;SDS011;43488;46.934;8.276;2023-02-26T10:12:25;385.05;;;288.65;;
57231;SDS011;43488;46.934;8.276;2023-02-26T10:15:05;428.17;;;226.32;;
57231;SDS011;43488;46.934;8.276;2023-02-26T10:23:22;424.95;;;220.65;;
57231;SDS011;43488;46.934;8.276;2023-02-26T10:26:13;431.40;;;219.80;;
57231;SDS011;43488;46.934;8.276;2023-02-26T10:28:47;385.70;;;290.85;;
57231;SDS011;43488;46.934;8.276;2023-02-26T10:31:58;381.10;;;296.20;;
57231;SDS011;43488;46.934;8.276;2023-02-26T10:40:22;394.30;;;297.92;;
57231;SDS011;43488;46.934;8.276;2023-02-26T10:52:11;426.77;;;217.43;;
57231;SDS011;43488;46.934;8.276;2023-02-26T10:54:50;446.02;;;234.50;;
57231;SDS011;43488;46.934;8.276;2023-02-26T10:57:41;448.73;;;239.90;;
57231;SDS011;43488;46.934;8.276;2023-02-26T11:00:16;434.15;;;216.32;;
57231;SDS011;43488;46.934;8.276;2023-02-26T11:02:54;424.77;;;313.05;;
57231;SDS011;43488;46.934;8.276;2023-02-26T11:05:24;409.85;;;309.02;;
57231;SDS011;43488;46.934;8.276;2023-02-26T11:08:02;427.15;;;207.13;;
57231;SDS011;43488;46.934;8.276;2023-02-26T11:13:29;400.08;;;297.52;;
57231;SDS011;43488;46.934;8.276;2023-02-26T11:16:00;455.95;;;225.20;;
57231;SDS011;43488;46.934;8.276;2023-02-26T11:18:40;413.95;;;306.75;;
57231;SDS011;43488;46.934;8.276;2023-02-26T11:21:16;444.42;;;240.73;;
57231;SDS011;43488;46.934;8.276;2023-02-26T11:24:01;450.42;;;232.30;;
57231;SDS011;43488;46.934;8.276;2023-02-26T11:26:41;398.20;;;299.20;;
57231;SDS011;43488;46.934;8.276;2023-02-26T11:29:14;429.77;;;225.85;;
57231;SDS011;43488;46.934;8.276;2023-02-26T11:31:52;427.70;;;218.48;;
57231;SDS011;43488;46.934;8.276;2023-02-26T11:34:23;439.70;;;224.00;;
57231;SDS011;43488;46.934;8.276;2023-02-26T11:36:55;418.75;;;310.35;;
57231;SDS011;43488;46.934;8.276;2023-02-26T11:39:32;393.85;;;296.30;;
57231;SDS011;43488;46.934;8.276;2023-02-26T11:42:04;378.48;;;292.50;;
57231;SDS011;43488;46.934;8.276;2023-02-26T11:44:39;369.50;;;283.20;;
57231;SDS011;43488;46.934;8.276;2023-02-26T11:47:22;434.33;;;230.07;;
57231;SDS011;43488;46.934;8.276;2023-02-26T11:49:55;411.25;;;209.82;;
57231;SDS011;43488;46.934;8.276;2023-02-26T11:57:57;395.73;;;300.92;;
57231;SDS011;43488;46.934;8.276;2023-02-26T12:00:30;389.75;;;302.65;;
57231;SDS011;43488;46.934;8.276;2023-02-26T12:03:06;388.33;;;307.30;;
57231;SDS011;43488;46.934;8.276;2023-02-26T12:05:42;415.00;;;214.40;;
57231;SDS011;43488;46.934;8.276;2023-02-26T12:08:15;371.05;;;292.05;;
57231;SDS011;43488;46.934;8.276;2023-02-26T12:10:54;433.13;;;233.70;;
57231;SDS011;43488;46.934;8.276;2023-02-26T12:21:54;384.75;;;288.05;;
57231;SDS011;43488;46.934;8.276;2023-02-26T12:34:14;386.13;;;302.92;;
57231;SDS011;43488;46.934;8.276;2023-02-26T12:44:14;396.60;;;294.40;;
57231;SDS011;43488;46.934;8.276;2023-02-26T13:02:33;384.83;;;297.52;;
57231;SDS011;43488;46.934;8.276;2023-02-26T13:10:50;419.70;;;212.52;;
57231;SDS011;43488;46.934;8.276;2023-02-26T13:13:32;397.90;;;308.45;;
57231;SDS011;43488;46.934;8.276;2023-02-26T13:16:31;418.23;;;219.23;;
57231;SDS011;43488;46.934;8.276;2023-02-26T13:19:08;408.65;;;210.07;;
57231;SDS011;43488;46.934;8.276;2023-02-26T13:22:02;399.10;;;310.58;;
57231;SDS011;43488;46.934;8.276;2023-02-26T13:25:07;377.58;;;291.52;;
57231;SDS011;43488;46.934;8.276;2023-02-26T13:28:00;379.95;;;301.60;;
57231;SDS011;43488;46.934;8.276;2023-02-26T13:31:00;426.33;;;223.27;;
57231;SDS011;43488;46.934;8.276;2023-02-26T13:33:30;367.67;;;279.15;;
57231;SDS011;43488;46.934;8.276;2023-02-26T13:36:00;373.25;;;284.35;;
57231;SDS011;43488;46.934;8.276;2023-02-26T13:38:45;413.58;;;209.27;;
57231;SDS011;43488;46.934;8.276;2023-02-26T13:42:00;426.33;;;219.93;;
57231;SDS011;43488;46.934;8.276;2023-02-26T13:56:12;422.90;;;223.68;;
57231;SDS011;43488;46.934;8.276;2023-02-26T13:59:48;392.73;;;303.25;;
57231;SDS011;43488;46.934;8.276;2023-02-26T14:01:55;364.25;;;279.50;;
57231;SDS011;43488;46.934;8.276;2023-02-26T14:04:30;421.60;;;216.32;;
57231;SDS011;43488;46.934;8.276;2023-02-26T14:07:15;415.95;;;210.20;;
57231;SDS011;43488;46.934;8.276;2023-02-26T14:10:12;412.40;;;211.18;;
57231;SDS011;43488;46.934;8.276;2023-02-26T14:13:01;381.08;;;289.25;;
57231;SDS011;43488;46.934;8.276;2023-02-26T14:24:43;409.73;;;211.93;;
57231;SDS011;43488;46.934;8.276;2023-02-26T14:32:28;412.98;;;205.27;;
57231;SDS011;43488;46.934;8.276;2023-02-26T14:35:21;370.75;;;285.38;;
57231;SDS011;43488;46.934;8.276;2023-02-26T14:40:29;381.05;;;292.90;;
57231;SDS011;43488;46.934;8.276;2023-02-26T14:43:11;355.70;;;275.35;;
57231;SDS011;43488;46.934;8.276;2023-02-26T14:45:46;353.33;;;275.05;;
57231;SDS011;43488;46.934;8.276;2023-02-26T14:48:16;368.38;;;282.92;;
57231;SDS011;43488;46.934;8.276;2023-02-26T14:56:27;377.13;;;297.63;;
57231;SDS011;43488;46.934;8.276;2023-02-26T15:08:30;429.87;;;227.50;;
57231;SDS011;43488;46.934;8.276;2023-02-26T15:23:37;359.63;;;281.30;;
57231;SDS011;43488;46.934;8.276;2023-02-26T15:26:23;379.25;;;289.40;;
57231;SDS011;43488;46.934;8.276;2023-02-26T15:29:03;404.02;;;306.67;;
57231;SDS011;43488;46.934;8.276;2023-02-26T15:31:35;400.17;;;300.63;;
57231;SDS011;43488;46.934;8.276;2023-02-26T15:34:11;402.88;;;201.60;;
57231;SDS011;43488;46.934;8.276;2023-02-26T15:36:44;422.40;;;222.52;;
57231;SDS011;43488;46.934;8.276;2023-02-26T15:39:19;427.17;;;222.25;;
57231;SDS011;43488;46.934;8.276;2023-02-26T15:41:50;384.48;;;291.50;;
57231;SDS011;43488;46.934;8.276;2023-02-26T15:44:24;388.27;;;293.30;;
57231;SDS011;43488;46.934;8.276;2023-02-26T15:47:01;415.38;;;221.73;;
57231;SDS011;43488;46.934;8.276;2023-02-26T15:49:40;409.10;;;209.80;;
57231;SDS011;43488;46.934;8.276;2023-02-26T15:54:46;398.13;;;302.40;;
57231;SDS011;43488;46.934;8.276;2023-02-26T15:57:17;392.02;;;291.20;;
57231;SDS011;43488;46.934;8.276;2023-02-26T16:02:20;398.50;;;298.88;;
57231;SDS011;43488;46.934;8.276;2023-02-26T16:04:54;430.80;;;228.98;;
57231;SDS011;43488;46.934;8.276;2023-02-26T16:07:21;421.48;;;225.68;;
57231;SDS011;43488;46.934;8.276;2023-02-26T16:09:53;420.15;;;220.70;;
57231;SDS011;43488;46.934;8.276;2023-02-26T16:12:29;381.67;;;296.60;;
57231;SDS011;43488;46.934;8.276;2023-02-26T16:15:10;372.98;;;285.65;;
57231;SDS011;43488;46.934;8.276;2023-02-26T16:17:47;430.92;;;235.93;;
57231;SDS011;43488;46.934;8.276;2023-02-26T16:20:20;421.35;;;219.57;;
57231;SDS011;43488;46.934;8.276;2023-02-26T16:22:58;375.15;;;291.20;;
57231;SDS011;43488;46.934;8.276;2023-02-26T16:28:29;411.70;;;216.32;;
57231;SDS011;43488;46.934;8.276;2023-02-26T16:31:16;375.00;;;296.25;;
57231;SDS011;43488;46.934;8.276;2023-02-26T16:33:55;357.30;;;282.35;;
57231;SDS011;43488;46.934;8.276;2023-02-26T16:36:29;374.50;;;287.92;;
57231;SDS011;43488;46.934;8.276;2023-02-26T16:41:34;402.95;;;209.48;;
57231;SDS011;43488;46.934;8.276;2023-02-26T16:44:23;415.23;;;205.02;;
57231;SDS011;43488;46.934;8.276;2023-02-26T16:46:58;417.65;;;216.80;;
57231;SDS011;43488;46.934;8.276;2023-02-26T16:49:31;424.30;;;222.30;;
57231;SDS011;43488;46.934;8.276;2023-02-26T16:52:01;358.23;;;277.73;;
57231;SDS011;43488;46.934;8.276;2023-02-26T16:54:33;356.98;;;288.52;;
57231;SDS011;43488;46.934;8.276;2023-02-26T16:57:16;408.63;;;216.27;;
57231;SDS011;43488;46.934;8.276;2023-02-26T16:59:51;372.88;;;284.02;;
57231;SDS011;43488;46.934;8.276;2023-02-26T17:02:28;407.27;;;207.75;;
57231;SDS011;43488;46.934;8.276;2023-02-26T17:05:01;343.30;;;268.80;;
57231;SDS011;43488;46.934;8.276;2023-02-26T17:07:48;409.70;;;207.02;;
57231;SDS011;43488;46.934;8.276;2023-02-26T17:10:28;428.25;;;230.02;;
57231;SDS011;43488;46.934;8.276;2023-02-26T17:13:11;359.75;;;286.08;;
57231;SDS011;43488;46.934;8.276;2023-02-26T17:15:45;396.73;;;203.52;;
57231;SDS011;43488;46.934;8.276;2023-02-26T17:18:14;392.50;;;296.45;;
57231;SDS011;43488;46.934;8.276;2023-02-26T17:20:43;420.17;;;214.27;;
57231;SDS011;43488;46.934;8.276;2023-02-26T17:23:12;383.33;;;304.63;;
57231;SDS011;43488;46.934;8.276;2023-02-26T17:25:46;411.90;;;217.90;;
57231;SDS011;43488;46.934;8.276;2023-02-26T17:28:20;378.02;;;292.33;;
57231;SDS011;43488;46.934;8.276;2023-02-26T17:30:51;408.02;;;210.20;;
57231;SDS011;43488;46.934;8.276;2023-02-26T17:33:19;424.48;;;223.90;;
57231;SDS011;43488;46.934;8.276;2023-02-26T17:35:47;377.85;;;287.48;;
57231;SDS011;43488;46.934;8.276;2023-02-26T17:38:15;417.00;;;213.55;;
57231;SDS011;43488;46.934;8.276;2023-02-26T17:40:43;355.25;;;275.52;;
57231;SDS011;43488;46.934;8.276;2023-02-26T17:43:12;416.73;;;216.95;;
57231;SDS011;43488;46.934;8.276;2023-02-26T17:45:40;350.00;;;274.63;;
57231;SDS011;43488;46.934;8.276;2023-02-26T17:48:09;375.02;;;285.27;;
57231;SDS011;43488;46.934;8.276;2023-02-26T17:50:47;360.20;;;282.30;;